sensor_id;sensor_type;location;lat;lon;timestamp;pressure;altitude;pressure_sealevel;temperature;humidity
7026;BME280;3554;42.132;24.786;2023-06-14T00:02:02;101481.50;;;20.96;100.00
7026;BME280;3554;42.132;24.786;2023-06-14T00:04:29;101475.66;;;20.88;100.00
7026;BME280;3554;42.132;24.786;2023-06-14T00:06:56;101471.06;;;20.92;100.00
7026;BME280;3554;42.132;24.786;2023-06-14T00:09:23;101473.09;;;20.87;100.00
7026;BME280;3554;42.132;24.786;2023-06-14T00:11:51;101471.06;;;20.92;100.00
7026;BME280;3554;42.132;24.786;2023-06-14T00:14:18;101476.91;;;20.81;100.00
7026;BME280;3554;42.132;24.786;2023-06-14T00:16:45;101466.25;;;20.81;100.00
7026;BME280;3554;42.132;24.786;2023-06-14T00:19:13;101464.38;;;20.83;100.00
7026;BME280;3554;42.132;24.786;2023-06-14T00:21:39;101464.03;;;20.91;100.00
7026;BME280;3554;42.132;24.786;2023-06-14T00:24:07;101466.44;;;20.95;100.00
7026;BME280;3554;42.132;24.786;2023-06-14T00:26:34;101442.81;;;20.71;100.00
7026;BME280;3554;42.132;24.786;2023-06-14T00:29:02;101449.19;;;20.85;100.00
7026;BME280;3554;42.132;24.786;2023-06-14T00:31:29;101426.66;;;20.75;100.00
7026;BME280;3554;42.132;24.786;2023-06-14T00:33:56;101443.78;;;20.87;100.00
7026;BME280;3554;42.132;24.786;2023-06-14T00:36:23;101427.81;;;20.87;100.00
7026;BME280;3554;42.132;24.786;2023-06-14T00:38:50;101429.47;;;20.89;100.00
7026;BME280;3554;42.132;24.786;2023-06-14T00:41:16;101435.63;;;20.73;100.00
7026;BME280;3554;42.132;24.786;2023-06-14T00:43:43;101422.81;;;20.45;100.00
7026;BME280;3554;42.132;24.786;2023-06-14T00:46:11;101410.97;;;20.69;100.00
7026;BME280;3554;42.132;24.786;2023-06-14T00:48:38;101406.09;;;20.77;100.00
7026;BME280;3554;42.132;24.786;2023-06-14T00:51:06;101407.06;;;20.76;100.00
7026;BME280;3554;42.132;24.786;2023-06-14T00:53:33;101406.09;;;20.60;100.00
7026;BME280;3554;42.132;24.786;2023-06-14T00:56:01;101376.66;;;20.46;100.00
7026;BME280;3554;42.132;24.786;2023-06-14T00:58:28;101380.72;;;20.53;100.00
7026;BME280;3554;42.132;24.786;2023-06-14T01:00:55;101352.94;;;20.42;100.00
7026;BME280;3554;42.132;24.786;2023-06-14T01:03:24;101355.97;;;20.51;100.00
7026;BME280;3554;42.132;24.786;2023-06-14T01:05:58;101346.75;;;20.41;100.00
7026;BME280;3554;42.132;24.786;2023-06-14T01:08:32;101321.66;;;20.28;100.00
7026;BME280;3554;42.132;24.786;2023-06-14T01:11:08;101307.66;;;20.24;100.00
7026;BME280;3554;42.132;24.786;2023-06-14T01:13:39;101300.38;;;20.28;100.00
7026;BME280;3554;42.132;24.786;2023-06-14T01:16:07;101281.16;;;20.23;100.00
7026;BME280;3554;42.132;24.786;2023-06-14T01:18:36;101264.47;;;20.01;100.00
7026;BME280;3554;42.132;24.786;2023-06-14T01:21:03;101254.34;;;20.09;100.00
7026;BME280;3554;42.132;24.786;2023-06-14T01:23:33;101249.66;;;20.14;100.00
7026;BME280;3554;42.132;24.786;2023-06-14T01:26:00;101237.00;;;20.19;100.00
7026;BME280;3554;42.132;24.786;2023-06-14T01:28:29;101240.97;;;20.10;100.00
7026;BME280;3554;42.132;24.786;2023-06-14T01:31:00;101244.25;;;20.15;100.00
7026;BME280;3554;42.132;24.786;2023-06-14T01:33:30;101243.28;;;20.18;100.00
7026;BME280;3554;42.132;24.786;2023-06-14T01:35:58;101238.84;;;20.18;100.00
7026;BME280;3554;42.132;24.786;2023-06-14T01:38:27;101256.59;;;20.35;100.00
7026;BME280;3554;42.132;24.786;2023-06-14T01:40:56;101266.69;;;20.10;100.00
7026;BME280;3554;42.132;24.786;2023-06-14T01:43:25;101257.78;;;20.11;100.00
7026;BME280;3554;42.132;24.786;2023-06-14T01:45:53;101272.38;;;20.21;100.00
7026;BME280;3554;42.132;24.786;2023-06-14T01:48:21;101248.50;;;19.84;100.00
7026;BME280;3554;42.132;24.786;2023-06-14T01:50:48;101264.56;;;19.99;100.00
7026;BME280;3554;42.132;24.786;2023-06-14T01:53:16;101266.41;;;20.16;100.00
7026;BME280;3554;42.132;24.786;2023-06-14T01:55:42;101284.09;;;20.17;100.00
7026;BME280;3554;42.132;24.786;2023-06-14T01:58:11;101300.84;;;20.19;100.00
7026;BME280;3554;42.132;24.786;2023-06-14T02:00:38;101311.34;;;20.22;100.00
7026;BME280;3554;42.132;24.786;2023-06-14T02:03:05;101323.00;;;20.19;100.00
7026;BME280;3554;42.132;24.786;2023-06-14T02:05:32;101326.94;;;20.11;100.00
7026;BME280;3554;42.132;24.786;2023-06-14T02:08:00;101334.63;;;20.17;100.00
7026;BME280;3554;42.132;24.786;2023-06-14T02:10:27;101363.16;;;20.32;100.00
7026;BME280;3554;42.132;24.786;2023-06-14T02:12:54;101395.00;;;20.34;100.00
7026;BME280;3554;42.132;24.786;2023-06-14T02:15:23;101424.97;;;20.37;100.00
7026;BME280;3554;42.132;24.786;2023-06-14T02:17:49;101429.66;;;20.32;100.00
7026;BME280;3554;42.132;24.786;2023-06-14T02:20:16;101431.63;;;20.08;100.00
7026;BME280;3554;42.132;24.786;2023-06-14T02:22:44;101386.47;;;19.90;100.00
7026;BME280;3554;42.132;24.786;2023-06-14T02:25:11;101420.59;;;19.99;100.00
7026;BME280;3554;42.132;24.786;2023-06-14T02:27:38;101432.00;;;20.01;100.00
7026;BME280;3554;42.132;24.786;2023-06-14T02:30:06;101416.91;;;19.83;100.00
7026;BME280;3554;42.132;24.786;2023-06-14T02:32:34;101432.63;;;19.87;100.00
7026;BME280;3554;42.132;24.786;2023-06-14T02:35:01;101410.31;;;19.53;100.00
7026;BME280;3554;42.132;24.786;2023-06-14T02:37:29;101375.81;;;19.33;100.00
7026;BME280;3554;42.132;24.786;2023-06-14T02:39:55;101364.63;;;19.24;100.00
7026;BME280;3554;42.132;24.786;2023-06-14T02:42:22;101340.72;;;19.24;100.00
7026;BME280;3554;42.132;24.786;2023-06-14T02:44:49;101322.41;;;19.18;100.00
7026;BME280;3554;42.132;24.786;2023-06-14T02:47:17;101316.78;;;19.06;100.00
7026;BME280;3554;42.132;24.786;2023-06-14T02:49:45;101309.34;;;19.14;100.00
7026;BME280;3554;42.132;24.786;2023-06-14T02:52:13;101320.56;;;19.20;100.00
7026;BME280;3554;42.132;24.786;2023-06-14T02:54:39;101327.13;;;19.12;100.00
7026;BME280;3554;42.132;24.786;2023-06-14T02:57:07;101340.22;;;19.37;100.00
7026;BME280;3554;42.132;24.786;2023-06-14T02:59:33;101377.47;;;19.35;100.00
7026;BME280;3554;42.132;24.786;2023-06-14T03:02:00;101390.69;;;19.37;100.00
7026;BME280;3554;42.132;24.786;2023-06-14T03:04:28;101387.53;;;19.27;100.00
7026;BME280;3554;42.132;24.786;2023-06-14T03:06:56;101378.84;;;19.23;100.00
7026;BME280;3554;42.132;24.786;2023-06-14T03:09:22;101397.50;;;19.42;100.00
7026;BME280;3554;42.132;24.786;2023-06-14T03:11:50;101418.81;;;19.41;100.00
7026;BME280;3554;42.132;24.786;2023-06-14T03:14:16;101445.13;;;19.47;100.00
7026;BME280;3554;42.132;24.786;2023-06-14T03:16:44;101467.72;;;19.37;100.00
7026;BME280;3554;42.132;24.786;2023-06-14T03:19:11;101436.47;;;19.21;100.00
7026;BME280;3554;42.132;24.786;2023-06-14T03:21:38;101416.59;;;19.30;100.00
7026;BME280;3554;42.132;24.786;2023-06-14T03:24:10;101417.69;;;19.46;100.00
7026;BME280;3554;42.132;24.786;2023-06-14T03:26:37;101422.19;;;19.64;100.00
7026;BME280;3554;42.132;24.786;2023-06-14T03:29:03;101446.19;;;19.81;100.00
7026;BME280;3554;42.132;24.786;2023-06-14T03:31:30;101481.44;;;19.86;100.00
7026;BME280;3554;42.132;24.786;2023-06-14T03:33:59;101518.38;;;19.92;100.00
7026;BME280;3554;42.132;24.786;2023-06-14T03:36:25;101562.34;;;19.99;100.00
7026;BME280;3554;42.132;24.786;2023-06-14T03:38:53;101579.69;;;20.08;100.00
7026;BME280;3554;42.132;24.786;2023-06-14T03:41:21;101614.59;;;20.22;100.00
7026;BME280;3554;42.132;24.786;2023-06-14T03:43:48;101617.09;;;20.25;100.00
7026;BME280;3554;42.132;24.786;2023-06-14T03:46:15;101616.69;;;20.34;100.00
7026;BME280;3554;42.132;24.786;2023-06-14T03:48:42;101595.25;;;20.37;100.00
7026;BME280;3554;42.132;24.786;2023-06-14T03:51:09;101573.25;;;20.34;100.00
7026;BME280;3554;42.132;24.786;2023-06-14T03:53:35;101572.13;;;20.39;100.00
7026;BME280;3554;42.132;24.786;2023-06-14T03:56:02;101568.63;;;20.18;100.00
7026;BME280;3554;42.132;24.786;2023-06-14T03:58:31;101541.25;;;20.15;100.00
7026;BME280;3554;42.132;24.786;2023-06-14T04:00:57;101538.75;;;19.92;100.00
7026;BME280;3554;42.132;24.786;2023-06-14T04:03:24;101523.03;;;19.67;100.00
7026;BME280;3554;42.132;24.786;2023-06-14T04:05:54;101527.91;;;19.58;100.00
7026;BME280;3554;42.132;24.786;2023-06-14T04:08:22;101530.91;;;19.70;100.00
7026;BME280;3554;42.132;24.786;2023-06-14T04:10:50;101544.22;;;19.89;100.00
7026;BME280;3554;42.132;24.786;2023-06-14T04:13:16;101545.28;;;20.05;100.00
7026;BME280;3554;42.132;24.786;2023-06-14T04:15:45;101556.09;;;20.20;100.00
7026;BME280;3554;42.132;24.786;2023-06-14T04:18:12;101547.06;;;20.24;100.00
7026;BME280;3554;42.132;24.786;2023-06-14T04:20:39;101536.31;;;20.46;100.00
7026;BME280;3554;42.132;24.786;2023-06-14T04:23:12;101529.47;;;20.59;100.00
7026;BME280;3554;42.132;24.786;2023-06-14T04:25:39;101494.28;;;20.71;100.00
7026;BME280;3554;42.132;24.786;2023-06-14T04:28:10;101459.06;;;20.83;100.00
7026;BME280;3554;42.132;24.786;2023-06-14T04:30:37;101407.47;;;20.86;100.00
7026;BME280;3554;42.132;24.786;2023-06-14T04:33:07;101400.81;;;20.94;100.00
7026;BME280;3554;42.132;24.786;2023-06-14T04:35:35;101362.66;;;20.94;100.00
7026;BME280;3554;42.132;24.786;2023-06-14T04:38:02;101328.66;;;21.00;100.00
7026;BME280;3554;42.132;24.786;2023-06-14T04:40:30;101324.28;;;21.15;100.00
7026;BME280;3554;42.132;24.786;2023-06-14T04:42:59;101273.56;;;21.01;100.00
7026;BME280;3554;42.132;24.786;2023-06-14T04:45:26;101242.19;;;20.73;100.00
7026;BME280;3554;42.132;24.786;2023-06-14T04:47:58;101243.78;;;20.93;100.00
7026;BME280;3554;42.132;24.786;2023-06-14T04:50:27;101243.69;;;21.11;100.00
7026;BME280;3554;42.132;24.786;2023-06-14T04:52:55;101215.16;;;21.29;100.00
7026;BME280;3554;42.132;24.786;2023-06-14T04:55:22;101163.19;;;21.06;100.00
7026;BME280;3554;42.132;24.786;2023-06-14T04:57:50;101148.47;;;21.15;100.00
7026;BME280;3554;42.132;24.786;2023-06-14T05:00:19;101115.59;;;21.16;100.00
7026;BME280;3554;42.132;24.786;2023-06-14T05:02:46;101084.22;;;21.21;100.00
7026;BME280;3554;42.132;24.786;2023-06-14T05:05:15;101150.56;;;21.41;100.00
7026;BME280;3554;42.132;24.786;2023-06-14T05:07:44;101138.75;;;21.45;100.00
7026;BME280;3554;42.132;24.786;2023-06-14T05:10:11;101121.66;;;21.49;100.00
7026;BME280;3554;42.132;24.786;2023-06-14T05:12:38;101110.59;;;21.71;100.00
7026;BME280;3554;42.132;24.786;2023-06-14T05:15:06;101060.53;;;21.46;100.00
7026;BME280;3554;42.132;24.786;2023-06-14T05:17:34;101057.78;;;21.77;100.00
7026;BME280;3554;42.132;24.786;2023-06-14T05:20:01;101029.16;;;21.81;100.00
7026;BME280;3554;42.132;24.786;2023-06-14T05:22:28;100987.00;;;21.72;100.00
7026;BME280;3554;42.132;24.786;2023-06-14T05:24:56;100984.13;;;21.90;100.00
7026;BME280;3554;42.132;24.786;2023-06-14T05:27:23;100977.47;;;21.97;100.00
7026;BME280;3554;42.132;24.786;2023-06-14T05:29:51;100929.63;;;21.66;100.00
7026;BME280;3554;42.132;24.786;2023-06-14T05:32:21;100920.06;;;21.48;100.00
7026;BME280;3554;42.132;24.786;2023-06-14T05:34:47;100889.97;;;21.32;100.00
7026;BME280;3554;42.132;24.786;2023-06-14T05:37:15;100929.47;;;21.83;100.00
7026;BME280;3554;42.132;24.786;2023-06-14T05:39:42;100880.56;;;22.11;100.00
7026;BME280;3554;42.132;24.786;2023-06-14T05:42:11;100840.13;;;22.31;100.00
7026;BME280;3554;42.132;24.786;2023-06-14T05:44:38;100788.31;;;22.48;100.00
7026;BME280;3554;42.132;24.786;2023-06-14T05:47:05;100742.59;;;22.13;100.00
7026;BME280;3554;42.132;24.786;2023-06-14T05:49:31;100734.53;;;22.27;100.00
7026;BME280;3554;42.132;24.786;2023-06-14T05:51:58;100737.97;;;22.29;100.00
7026;BME280;3554;42.132;24.786;2023-06-14T05:54:25;100730.44;;;22.48;100.00
7026;BME280;3554;42.132;24.786;2023-06-14T05:56:52;100689.00;;;22.30;100.00
7026;BME280;3554;42.132;24.786;2023-06-14T05:59:21;100677.22;;;22.20;100.00
7026;BME280;3554;42.132;24.786;2023-06-14T06:01:47;100655.28;;;22.54;100.00
7026;BME280;3554;42.132;24.786;2023-06-14T06:04:14;100600.63;;;22.60;100.00
7026;BME280;3554;42.132;24.786;2023-06-14T06:06:41;100558.97;;;22.70;100.00
7026;BME280;3554;42.132;24.786;2023-06-14T06:09:08;100563.38;;;22.20;100.00
7026;BME280;3554;42.132;24.786;2023-06-14T06:11:35;100563.50;;;22.57;100.00
7026;BME280;3554;42.132;24.786;2023-06-14T06:14:01;100534.91;;;22.82;100.00
7026;BME280;3554;42.132;24.786;2023-06-14T06:16:30;100472.88;;;23.26;100.00
7026;BME280;3554;42.132;24.786;2023-06-14T06:18:56;100375.94;;;23.70;100.00
7026;BME280;3554;42.132;24.786;2023-06-14T06:21:23;100263.84;;;24.00;100.00
7026;BME280;3554;42.132;24.786;2023-06-14T06:23:50;100141.66;;;24.21;100.00
7026;BME280;3554;42.132;24.786;2023-06-14T06:26:17;100099.88;;;24.50;100.00
7026;BME280;3554;42.132;24.786;2023-06-14T06:28:44;100033.81;;;24.81;100.00
7026;BME280;3554;42.132;24.786;2023-06-14T06:31:10;99974.66;;;25.03;100.00
7026;BME280;3554;42.132;24.786;2023-06-14T06:33:39;99916.84;;;25.10;100.00
7026;BME280;3554;42.132;24.786;2023-06-14T06:36:06;99877.91;;;25.25;100.00
7026;BME280;3554;42.132;24.786;2023-06-14T06:38:33;99859.72;;;25.09;100.00
7026;BME280;3554;42.132;24.786;2023-06-14T06:41:00;99789.63;;;25.14;100.00
7026;BME280;3554;42.132;24.786;2023-06-14T06:43:27;99762.97;;;25.12;100.00
7026;BME280;3554;42.132;24.786;2023-06-14T06:45:54;99722.78;;;25.12;100.00
7026;BME280;3554;42.132;24.786;2023-06-14T06:48:21;99723.69;;;24.94;100.00
7026;BME280;3554;42.132;24.786;2023-06-14T06:50:49;99704.25;;;24.82;100.00
7026;BME280;3554;42.132;24.786;2023-06-14T06:53:17;99735.00;;;23.21;100.00
7026;BME280;3554;42.132;24.786;2023-06-14T06:55:44;99804.72;;;23.39;100.00
7026;BME280;3554;42.132;24.786;2023-06-14T06:58:12;99800.41;;;24.07;100.00
7026;BME280;3554;42.132;24.786;2023-06-14T07:00:38;99724.09;;;24.61;100.00
7026;BME280;3554;42.132;24.786;2023-06-14T07:03:06;99663.78;;;24.85;100.00
7026;BME280;3554;42.132;24.786;2023-06-14T07:05:33;99621.97;;;25.11;100.00
7026;BME280;3554;42.132;24.786;2023-06-14T07:08:01;99575.19;;;24.96;100.00
7026;BME280;3554;42.132;24.786;2023-06-14T07:10:29;99545.69;;;25.06;100.00
7026;BME280;3554;42.132;24.786;2023-06-14T07:12:56;99495.75;;;25.50;100.00
7026;BME280;3554;42.132;24.786;2023-06-14T07:15:23;99462.00;;;25.12;100.00
7026;BME280;3554;42.132;24.786;2023-06-14T07:17:50;99486.91;;;24.68;100.00
7026;BME280;3554;42.132;24.786;2023-06-14T07:20:18;99484.91;;;25.06;100.00
7026;BME280;3554;42.132;24.786;2023-06-14T07:22:47;99424.97;;;25.25;100.00
7026;BME280;3554;42.132;24.786;2023-06-14T07:25:15;99377.81;;;25.50;100.00
7026;BME280;3554;42.132;24.786;2023-06-14T07:27:46;99352.78;;;25.23;100.00
7026;BME280;3554;42.132;24.786;2023-06-14T07:30:13;99454.59;;;24.15;100.00
7026;BME280;3554;42.132;24.786;2023-06-14T07:32:40;99432.75;;;24.83;100.00
7026;BME280;3554;42.132;24.786;2023-06-14T07:35:07;99358.22;;;25.14;100.00
7026;BME280;3554;42.132;24.786;2023-06-14T07:37:34;99333.75;;;25.52;100.00
7026;BME280;3554;42.132;24.786;2023-06-14T07:40:01;99298.25;;;25.84;100.00
7026;BME280;3554;42.132;24.786;2023-06-14T07:42:34;99272.13;;;25.94;100.00
7026;BME280;3554;42.132;24.786;2023-06-14T07:45:01;99242.44;;;26.29;100.00
7026;BME280;3554;42.132;24.786;2023-06-14T07:47:28;99224.94;;;26.09;100.00
7026;BME280;3554;42.132;24.786;2023-06-14T07:49:55;99225.97;;;26.16;100.00
7026;BME280;3554;42.132;24.786;2023-06-14T07:52:22;99210.53;;;26.26;100.00
7026;BME280;3554;42.132;24.786;2023-06-14T07:54:49;99188.25;;;26.66;100.00
7026;BME280;3554;42.132;24.786;2023-06-14T07:57:16;99170.63;;;26.95;100.00
7026;BME280;3554;42.132;24.786;2023-06-14T07:59:46;99144.66;;;26.72;100.00
7026;BME280;3554;42.132;24.786;2023-06-14T08:02:14;99139.06;;;26.97;100.00
7026;BME280;3554;42.132;24.786;2023-06-14T08:04:41;99133.34;;;26.92;100.00
7026;BME280;3554;42.132;24.786;2023-06-14T08:07:08;99108.84;;;26.63;100.00
7026;BME280;3554;42.132;24.786;2023-06-14T08:09:35;99126.38;;;25.35;100.00
7026;BME280;3554;42.132;24.786;2023-06-14T08:12:04;99120.56;;;25.90;100.00
7026;BME280;3554;42.132;24.786;2023-06-14T08:14:32;99118.97;;;26.29;100.00
7026;BME280;3554;42.132;24.786;2023-06-14T08:17:01;99112.41;;;26.15;100.00
7026;BME280;3554;42.132;24.786;2023-06-14T08:19:27;99111.75;;;26.70;100.00
7026;BME280;3554;42.132;24.786;2023-06-14T08:21:55;99098.91;;;27.04;100.00
7026;BME280;3554;42.132;24.786;2023-06-14T08:24:22;99090.72;;;26.65;100.00
7026;BME280;3554;42.132;24.786;2023-06-14T08:26:50;99078.59;;;26.93;100.00
7026;BME280;3554;42.132;24.786;2023-06-14T08:29:17;99094.31;;;27.20;100.00
7026;BME280;3554;42.132;24.786;2023-06-14T08:31:44;99091.75;;;26.40;100.00
7026;BME280;3554;42.132;24.786;2023-06-14T08:34:13;99078.03;;;26.27;100.00
7026;BME280;3554;42.132;24.786;2023-06-14T08:36:39;99091.75;;;26.80;100.00
7026;BME280;3554;42.132;24.786;2023-06-14T08:39:07;99089.59;;;26.68;100.00
7026;BME280;3554;42.132;24.786;2023-06-14T08:41:35;99093.19;;;27.07;100.00
7026;BME280;3554;42.132;24.786;2023-06-14T08:44:03;99074.88;;;27.49;100.00
7026;BME280;3554;42.132;24.786;2023-06-14T08:46:32;99084.28;;;27.84;100.00
7026;BME280;3554;42.132;24.786;2023-06-14T08:49:01;99085.66;;;27.72;100.00
7026;BME280;3554;42.132;24.786;2023-06-14T08:51:31;99078.94;;;26.98;100.00
7026;BME280;3554;42.132;24.786;2023-06-14T08:54:00;99094.44;;;26.56;100.00
7026;BME280;3554;42.132;24.786;2023-06-14T08:56:27;99080.34;;;26.54;100.00
7026;BME280;3554;42.132;24.786;2023-06-14T08:58:55;99061.00;;;25.54;100.00
7026;BME280;3554;42.132;24.786;2023-06-14T09:01:22;99079.13;;;25.26;100.00
7026;BME280;3554;42.132;24.786;2023-06-14T09:03:50;99057.44;;;25.12;100.00
7026;BME280;3554;42.132;24.786;2023-06-14T09:06:17;99075.63;;;25.84;100.00
7026;BME280;3554;42.132;24.786;2023-06-14T09:08:46;99075.63;;;26.80;100.00
7026;BME280;3554;42.132;24.786;2023-06-14T09:11:15;99052.09;;;27.37;100.00
7026;BME280;3554;42.132;24.786;2023-06-14T09:13:44;99061.34;;;27.65;100.00
7026;BME280;3554;42.132;24.786;2023-06-14T09:16:11;99020.41;;;27.78;100.00
7026;BME280;3554;42.132;24.786;2023-06-14T09:18:40;99047.78;;;28.26;100.00
7026;BME280;3554;42.132;24.786;2023-06-14T09:21:11;99053.97;;;28.12;100.00
7026;BME280;3554;42.132;24.786;2023-06-14T09:23:38;99065.34;;;28.00;100.00
7026;BME280;3554;42.132;24.786;2023-06-14T09:26:11;99062.28;;;28.03;100.00
7026;BME280;3554;42.132;24.786;2023-06-14T09:28:41;99041.47;;;28.34;100.00
7026;BME280;3554;42.132;24.786;2023-06-14T09:31:10;99044.09;;;28.05;100.00
7026;BME280;3554;42.132;24.786;2023-06-14T09:33:37;99043.03;;;28.14;100.00
7026;BME280;3554;42.132;24.786;2023-06-14T09:36:04;99039.59;;;27.75;100.00
7026;BME280;3554;42.132;24.786;2023-06-14T09:38:31;99042.50;;;27.65;100.00
7026;BME280;3554;42.132;24.786;2023-06-14T09:41:03;99042.94;;;27.77;100.00
7026;BME280;3554;42.132;24.786;2023-06-14T09:43:33;99054.34;;;27.09;100.00
7026;BME280;3554;42.132;24.786;2023-06-14T09:46:01;99030.50;;;27.76;100.00
7026;BME280;3554;42.132;24.786;2023-06-14T09:48:27;99021.25;;;28.01;100.00
7026;BME280;3554;42.132;24.786;2023-06-14T09:50:55;99036.56;;;28.37;100.00
7026;BME280;3554;42.132;24.786;2023-06-14T09:53:25;99053.47;;;28.31;100.00
7026;BME280;3554;42.132;24.786;2023-06-14T09:55:54;99043.56;;;27.56;100.00
7026;BME280;3554;42.132;24.786;2023-06-14T09:58:26;99040.56;;;27.59;100.00
7026;BME280;3554;42.132;24.786;2023-06-14T10:00:57;99025.72;;;27.86;100.00
7026;BME280;3554;42.132;24.786;2023-06-14T10:03:27;99036.38;;;28.24;100.00
7026;BME280;3554;42.132;24.786;2023-06-14T10:05:55;99024.38;;;28.27;100.00
7026;BME280;3554;42.132;24.786;2023-06-14T10:08:27;99021.78;;;28.19;100.00
7026;BME280;3554;42.132;24.786;2023-06-14T10:10:58;99029.06;;;28.47;100.00
7026;BME280;3554;42.132;24.786;2023-06-14T10:13:25;99025.53;;;28.47;100.00
7026;BME280;3554;42.132;24.786;2023-06-14T10:16:00;99029.41;;;28.30;100.00
7026;BME280;3554;42.132;24.786;2023-06-14T10:18:36;99023.09;;;27.55;100.00
7026;BME280;3554;42.132;24.786;2023-06-14T10:21:14;99006.13;;;27.16;100.00
7026;BME280;3554;42.132;24.786;2023-06-14T10:23:44;99021.75;;;27.51;100.00
7026;BME280;3554;42.132;24.786;2023-06-14T10:26:18;99000.97;;;26.52;100.00
7026;BME280;3554;42.132;24.786;2023-06-14T10:28:56;98999.63;;;27.02;100.00
7026;BME280;3554;42.132;24.786;2023-06-14T10:31:40;99001.66;;;27.39;100.00
7026;BME280;3554;42.132;24.786;2023-06-14T10:34:06;99015.59;;;27.42;100.00
7026;BME280;3554;42.132;24.786;2023-06-14T10:36:33;99013.34;;;27.77;100.00
7026;BME280;3554;42.132;24.786;2023-06-14T10:39:04;99014.06;;;27.71;100.00
7026;BME280;3554;42.132;24.786;2023-06-14T10:41:35;99004.66;;;27.67;100.00
7026;BME280;3554;42.132;24.786;2023-06-14T10:44:40;99006.75;;;27.57;100.00
7026;BME280;3554;42.132;24.786;2023-06-14T10:47:10;99013.34;;;27.77;100.00
7026;BME280;3554;42.132;24.786;2023-06-14T10:49:39;98998.81;;;27.86;100.00
7026;BME280;3554;42.132;24.786;2023-06-14T10:52:10;98993.25;;;27.42;100.00
7026;BME280;3554;42.132;24.786;2023-06-14T10:55:03;99002.66;;;27.38;100.00
7026;BME280;3554;42.132;24.786;2023-06-14T10:57:32;98996.28;;;27.84;100.00
7026;BME280;3554;42.132;24.786;2023-06-14T10:59:59;99000.66;;;27.85;100.00
7026;BME280;3554;42.132;24.786;2023-06-14T11:02:47;98988.41;;;27.83;100.00
7026;BME280;3554;42.132;24.786;2023-06-14T11:05:23;98993.47;;;28.23;100.00
7026;BME280;3554;42.132;24.786;2023-06-14T11:08:02;98986.72;;;28.04;100.00
7026;BME280;3554;42.132;24.786;2023-06-14T11:10:36;98994.13;;;28.25;100.00
7026;BME280;3554;42.132;24.786;2023-06-14T11:13:04;98971.75;;;28.24;100.00
7026;BME280;3554;42.132;24.786;2023-06-14T11:15:32;98966.97;;;27.75;100.00
7026;BME280;3554;42.132;24.786;2023-06-14T11:18:02;98989.91;;;27.85;100.00
7026;BME280;3554;42.132;24.786;2023-06-14T11:20:31;98995.22;;;27.71;100.00
7026;BME280;3554;42.132;24.786;2023-06-14T11:22:58;98979.47;;;27.68;100.00
7026;BME280;3554;42.132;24.786;2023-06-14T11:25:26;98984.03;;;27.36;100.00
7026;BME280;3554;42.132;24.786;2023-06-14T11:27:54;98978.72;;;27.74;100.00
7026;BME280;3554;42.132;24.786;2023-06-14T11:30:21;98983.53;;;28.09;100.00
7026;BME280;3554;42.132;24.786;2023-06-14T11:32:49;98972.31;;;28.49;100.00
7026;BME280;3554;42.132;24.786;2023-06-14T11:35:19;98973.84;;;28.00;100.00
7026;BME280;3554;42.132;24.786;2023-06-14T11:37:48;98953.34;;;28.13;100.00
7026;BME280;3554;42.132;24.786;2023-06-14T11:40:17;98974.50;;;28.02;100.00
7026;BME280;3554;42.132;24.786;2023-06-14T11:42:44;98973.88;;;28.29;100.00
7026;BME280;3554;42.132;24.786;2023-06-14T11:45:11;98978.25;;;28.30;100.00
7026;BME280;3554;42.132;24.786;2023-06-14T11:47:39;98930.75;;;27.63;100.00
7026;BME280;3554;42.132;24.786;2023-06-14T11:50:07;98934.38;;;27.70;100.00
7026;BME280;3554;42.132;24.786;2023-06-14T11:52:36;98959.84;;;27.82;100.00
7026;BME280;3554;42.132;24.786;2023-06-14T11:55:04;98954.81;;;28.01;100.00
7026;BME280;3554;42.132;24.786;2023-06-14T11:57:34;98954.53;;;27.96;100.00
7026;BME280;3554;42.132;24.786;2023-06-14T12:00:03;98925.84;;;27.66;100.00
7026;BME280;3554;42.132;24.786;2023-06-14T12:02:32;98953.38;;;27.91;100.00
7026;BME280;3554;42.132;24.786;2023-06-14T12:05:04;98853.72;;;27.02;100.00
7026;BME280;3554;42.132;24.786;2023-06-14T12:07:33;98943.88;;;27.58;100.00
7026;BME280;3554;42.132;24.786;2023-06-14T12:10:08;98934.66;;;27.52;100.00
7026;BME280;3554;42.132;24.786;2023-06-14T12:12:37;98946.19;;;27.83;100.00
7026;BME280;3554;42.132;24.786;2023-06-14T12:15:05;98952.09;;;27.64;100.00
7026;BME280;3554;42.132;24.786;2023-06-14T12:17:33;98948.59;;;27.33;100.00
7026;BME280;3554;42.132;24.786;2023-06-14T12:20:05;98939.72;;;26.55;100.00
7026;BME280;3554;42.132;24.786;2023-06-14T12:22:34;98934.25;;;26.79;100.00
7026;BME280;3554;42.132;24.786;2023-06-14T12:25:00;98925.31;;;26.95;100.00
7026;BME280;3554;42.132;24.786;2023-06-14T12:27:30;98932.81;;;26.99;100.00
7026;BME280;3554;42.132;24.786;2023-06-14T12:30:00;98923.97;;;26.91;100.00
7026;BME280;3554;42.132;24.786;2023-06-14T12:32:28;98923.22;;;27.05;100.00
7026;BME280;3554;42.132;24.786;2023-06-14T12:34:55;98910.72;;;27.20;100.00
7026;BME280;3554;42.132;24.786;2023-06-14T12:37:22;98915.53;;;27.24;100.00
7026;BME280;3554;42.132;24.786;2023-06-14T12:39:49;98906.44;;;27.33;100.00
7026;BME280;3554;42.132;24.786;2023-06-14T12:42:16;98911.75;;;27.64;100.00
7026;BME280;3554;42.132;24.786;2023-06-14T12:44:45;98907.88;;;27.81;100.00
7026;BME280;3554;42.132;24.786;2023-06-14T12:47:11;98910.00;;;27.48;100.00
7026;BME280;3554;42.132;24.786;2023-06-14T12:49:39;98905.09;;;27.52;100.00
7026;BME280;3554;42.132;24.786;2023-06-14T12:52:07;98892.63;;;27.36;100.00
7026;BME280;3554;42.132;24.786;2023-06-14T12:54:34;98895.84;;;27.32;100.00
7026;BME280;3554;42.132;24.786;2023-06-14T12:57:01;98891.34;;;27.47;100.00
7026;BME280;3554;42.132;24.786;2023-06-14T12:59:28;98856.88;;;27.51;100.00
7026;BME280;3554;42.132;24.786;2023-06-14T13:02:10;98894.19;;;27.68;100.00